Aquebogue, New York
Current Conditions -  °F | °C
As of 11:53 PM on Tuesday 25 Nov 2014 (Local Time) from KFOK Reporting Station
Clear Clear  
Wind Chill: 39°   Ceiling: Unl
Heat Index: 42°   Visibility: 10mi
Dew Point: 35°   Wind: 5mph
Humidity: 76%   Direction: 300°WNW
Pressure: 30.17"   Gusts: NA
Location:  40.94°N, 72.61°W
Report Text: KFOK 260453Z AUTO 30004KT 10SM CLR 06/02 A3017 RMK AO2 SLP218 T00560017 401670050 TSNO
Loading
Personal Weather Stations






























Interactive Weather Map New forecast layout! Learn more

10-Day Weather Forecast

Advertisements
Track Severe Weather on mobile